createdAt,value
2023-05-14T00:01:55.878Z,10.60
2023-05-14T00:04:24.630Z,10.70
2023-05-14T00:06:53.213Z,10.70
2023-05-14T00:09:24.528Z,10.70
2023-05-14T00:11:53.566Z,10.80
2023-05-14T00:14:22.229Z,10.80
2023-05-14T00:16:51.266Z,10.70
2023-05-14T00:19:19.414Z,10.70
2023-05-14T00:21:49.096Z,10.60
2023-05-14T00:24:18.206Z,10.60
2023-05-14T00:26:48.240Z,10.70
2023-05-14T00:29:16.838Z,10.70
2023-05-14T00:31:46.987Z,10.70
2023-05-14T00:34:15.533Z,10.80
2023-05-14T00:36:44.790Z,10.80
2023-05-14T00:39:13.889Z,10.70
2023-05-14T00:41:45.718Z,10.60
2023-05-14T00:44:15.569Z,10.60
2023-05-14T00:46:44.514Z,10.60
2023-05-14T00:49:13.100Z,10.60
2023-05-14T00:51:47.084Z,10.60
2023-05-14T00:54:17.545Z,10.50
2023-05-14T00:56:47.642Z,10.50
2023-05-14T00:59:18.785Z,10.40
2023-05-14T01:01:47.569Z,10.40
2023-05-14T01:04:16.592Z,10.40
2023-05-14T01:06:56.942Z,10.30
2023-05-14T01:09:31.699Z,10.30
2023-05-14T01:12:12.844Z,10.30
2023-05-14T01:14:51.754Z,10.30
2023-05-14T01:17:22.942Z,10.30
2023-05-14T01:19:54.353Z,10.20
2023-05-14T01:22:24.523Z,10.20
2023-05-14T01:24:53.317Z,10.20
2023-05-14T01:27:27.673Z,10.20
2023-05-14T01:30:04.968Z,10.30
2023-05-14T01:32:34.736Z,10.40
2023-05-14T01:35:03.881Z,10.40
2023-05-14T01:37:36.157Z,10.50
2023-05-14T01:40:06.370Z,10.50
2023-05-14T01:42:34.802Z,10.50
2023-05-14T01:45:04.759Z,10.50
2023-05-14T01:47:33.294Z,10.40
2023-05-14T01:50:02.968Z,10.30
2023-05-14T01:52:33.219Z,10.20
2023-05-14T01:55:02.582Z,10.20
2023-05-14T01:57:31.342Z,10.20
2023-05-14T02:00:00.419Z,10.20
2023-05-14T02:02:33.937Z,10.10
2023-05-14T02:05:03.480Z,10.10
2023-05-14T02:07:34.091Z,10.10
2023-05-14T02:10:03.003Z,10.10
2023-05-14T02:12:33.072Z,10.10
2023-05-14T02:15:03.612Z,10.10
2023-05-14T02:17:34.541Z,10.10
2023-05-14T02:20:04.811Z,10.20
2023-05-14T02:22:46.049Z,10.20
2023-05-14T02:25:14.364Z,10.20
2023-05-14T02:27:46.103Z,10.30
2023-05-14T02:30:14.694Z,10.20
2023-05-14T02:32:44.140Z,10.20
2023-05-14T02:35:13.718Z,10.10
2023-05-14T02:37:47.050Z,10.00
2023-05-14T02:40:16.847Z,9.90
2023-05-14T02:42:46.225Z,9.90
2023-05-14T02:45:17.171Z,9.90
2023-05-14T02:47:46.178Z,9.90
2023-05-14T02:50:14.497Z,10.00
2023-05-14T02:52:44.712Z,10.10
2023-05-14T02:55:13.952Z,10.10
2023-05-14T02:57:42.290Z,10.10
2023-05-14T03:00:12.304Z,10.10
2023-05-14T03:02:43.645Z,10.10
2023-05-14T03:05:12.684Z,10.10
2023-05-14T03:07:41.193Z,10.10
2023-05-14T03:10:12.167Z,10.10
2023-05-14T03:12:40.886Z,10.00
2023-05-14T03:15:10.715Z,9.90
2023-05-14T03:17:39.329Z,9.70
2023-05-14T03:20:08.702Z,9.60
2023-05-14T03:22:37.542Z,9.50
2023-05-14T03:25:06.577Z,9.60
2023-05-14T03:27:36.487Z,9.70
2023-05-14T03:30:06.058Z,9.70
2023-05-14T03:32:36.150Z,9.70
2023-05-14T03:35:05.113Z,9.70
2023-05-14T03:37:34.611Z,9.70
2023-05-14T03:40:03.807Z,9.70
2023-05-14T03:42:36.765Z,9.60
2023-05-14T03:45:05.617Z,9.50
2023-05-14T03:47:34.274Z,9.50
2023-05-14T03:50:03.073Z,9.50
2023-05-14T03:52:34.204Z,9.40
2023-05-14T03:55:04.465Z,9.40
2023-05-14T03:57:36.048Z,9.40
2023-05-14T04:00:05.288Z,9.30
2023-05-14T04:02:45.399Z,9.30
2023-05-14T04:05:14.353Z,9.30
2023-05-14T04:07:45.959Z,9.30
2023-05-14T04:10:14.923Z,9.10
2023-05-14T04:12:45.057Z,9.10
2023-05-14T04:15:13.647Z,9.10
2023-05-14T04:17:43.951Z,9.10
2023-05-14T04:20:16.497Z,9.10
2023-05-14T04:22:44.947Z,9.10
2023-05-14T04:25:13.301Z,9.20
2023-05-14T04:27:42.239Z,9.20
2023-05-14T04:30:14.248Z,9.30
2023-05-14T04:32:43.115Z,9.30
2023-05-14T04:35:13.084Z,9.30
2023-05-14T04:37:42.246Z,9.40
2023-05-14T04:40:12.585Z,9.50
2023-05-14T04:42:41.545Z,9.50
2023-05-14T04:45:13.544Z,9.50
2023-05-14T04:47:42.786Z,9.60
2023-05-14T04:50:12.798Z,9.70
2023-05-14T04:52:41.585Z,9.70
2023-05-14T04:55:11.337Z,9.80
2023-05-14T04:57:40.782Z,9.70
2023-05-14T05:00:13.484Z,9.70
2023-05-14T05:02:44.410Z,9.80
2023-05-14T05:05:12.837Z,9.80
2023-05-14T05:07:41.855Z,9.70
2023-05-14T05:10:10.806Z,9.80
2023-05-14T05:12:39.752Z,9.80
2023-05-14T05:15:09.628Z,9.80
2023-05-14T05:17:42.047Z,9.90
2023-05-14T05:20:11.429Z,9.90
2023-05-14T05:22:40.179Z,10.00
2023-05-14T05:25:09.291Z,10.00
2023-05-14T05:27:37.751Z,9.90
2023-05-14T05:30:07.553Z,9.80
2023-05-14T05:32:39.237Z,9.80
2023-05-14T05:35:11.116Z,9.70
2023-05-14T05:37:39.470Z,9.80
2023-05-14T05:40:10.588Z,9.80
2023-05-14T05:42:39.067Z,9.90
2023-05-14T05:45:08.677Z,9.90
2023-05-14T05:47:36.862Z,9.90
2023-05-14T05:50:05.871Z,9.90
2023-05-14T05:52:35.520Z,9.90
2023-05-14T05:55:04.104Z,10.00
2023-05-14T05:57:32.302Z,10.00
2023-05-14T06:00:08.304Z,10.00
2023-05-14T06:02:42.379Z,10.10
2023-05-14T06:05:15.830Z,10.20
2023-05-14T06:07:48.277Z,10.20
2023-05-14T06:10:20.141Z,10.30
2023-05-14T06:12:49.382Z,10.40
2023-05-14T06:15:18.128Z,10.40
2023-05-14T06:17:48.391Z,10.30
2023-05-14T06:20:17.436Z,10.40
2023-05-14T06:22:48.040Z,10.50
2023-05-14T06:25:18.502Z,10.50
2023-05-14T06:27:50.078Z,10.60
2023-05-14T06:30:19.058Z,10.60
2023-05-14T06:32:50.123Z,10.70
2023-05-14T06:35:22.244Z,10.70
2023-05-14T06:37:53.523Z,10.60
2023-05-14T06:40:22.990Z,10.60
2023-05-14T06:42:52.793Z,10.60
2023-05-14T06:45:21.497Z,10.60
2023-05-14T06:47:50.737Z,10.70
2023-05-14T06:50:19.736Z,10.90
2023-05-14T06:52:48.602Z,11.00
2023-05-14T06:55:20.852Z,11.10
2023-05-14T06:57:50.678Z,11.20
2023-05-14T07:00:20.073Z,11.30
2023-05-14T07:02:49.300Z,11.20
2023-05-14T07:05:18.458Z,11.30
2023-05-14T07:07:46.638Z,11.30
2023-05-14T07:10:16.235Z,11.30
2023-05-14T07:12:46.500Z,11.30
2023-05-14T07:15:16.296Z,11.30
2023-05-14T07:17:44.719Z,11.30
2023-05-14T07:20:14.503Z,11.40
2023-05-14T07:22:42.747Z,11.60
2023-05-14T07:25:11.352Z,11.70
2023-05-14T07:27:40.532Z,11.50
2023-05-14T07:30:11.732Z,11.60
2023-05-14T07:32:40.775Z,11.70
2023-05-14T07:35:11.675Z,11.80
2023-05-14T07:37:40.565Z,11.90
2023-05-14T07:40:11.392Z,12.00
2023-05-14T07:42:40.181Z,12.10
2023-05-14T07:45:12.756Z,12.10
2023-05-14T07:47:42.275Z,12.20
2023-05-14T07:50:11.950Z,12.40
2023-05-14T07:52:41.098Z,12.50
2023-05-14T07:55:10.196Z,12.60
2023-05-14T07:57:38.624Z,12.80
2023-05-14T08:00:09.171Z,12.90
2023-05-14T08:02:46.559Z,13.00
2023-05-14T08:05:15.352Z,13.10
2023-05-14T08:07:44.187Z,13.20
2023-05-14T08:10:12.877Z,13.20
2023-05-14T08:12:41.886Z,13.30
2023-05-14T08:15:11.237Z,13.40
2023-05-14T08:17:40.714Z,13.50
2023-05-14T08:20:13.251Z,13.60
2023-05-14T08:22:42.003Z,13.80
2023-05-14T08:25:11.041Z,13.90
2023-05-14T08:27:42.082Z,13.90
2023-05-14T08:30:52.886Z,14.10
2023-05-14T08:33:21.823Z,14.20
2023-05-14T08:35:54.794Z,14.30
2023-05-14T08:38:23.263Z,14.40
2023-05-14T08:40:57.991Z,14.40
2023-05-14T08:43:28.661Z,14.50
2023-05-14T08:46:02.966Z,14.60
2023-05-14T08:48:38.107Z,14.80
2023-05-14T08:51:09.239Z,14.80
2023-05-14T08:53:38.589Z,14.90
2023-05-14T08:56:08.346Z,15.00
2023-05-14T08:58:36.754Z,15.10
2023-05-14T09:01:06.041Z,15.20
2023-05-14T09:03:37.531Z,15.40
2023-05-14T09:06:09.877Z,15.50
2023-05-14T09:08:38.835Z,15.70
2023-05-14T09:11:08.305Z,15.70
2023-05-14T09:13:39.758Z,15.90
2023-05-14T09:16:10.288Z,15.90
2023-05-14T09:18:38.964Z,16.20
2023-05-14T09:21:09.860Z,16.30
2023-05-14T09:23:43.570Z,16.50
2023-05-14T09:26:14.384Z,16.60
2023-05-14T09:28:43.196Z,16.70
2023-05-14T09:31:12.686Z,16.80
2023-05-14T09:33:43.781Z,17.00
2023-05-14T09:36:17.867Z,17.10
2023-05-14T09:38:47.133Z,17.30
2023-05-14T09:41:16.546Z,17.40
2023-05-14T09:43:45.734Z,17.60
2023-05-14T09:46:14.813Z,17.70
2023-05-14T09:48:43.634Z,17.90
2023-05-14T09:51:15.221Z,18.00
2023-05-14T09:53:46.066Z,18.10
2023-05-14T09:56:14.486Z,18.20
2023-05-14T09:58:44.638Z,18.30
2023-05-14T10:01:14.191Z,18.50
2023-05-14T10:03:42.579Z,18.50
2023-05-14T10:06:13.580Z,18.50
2023-05-14T10:08:48.458Z,18.70
2023-05-14T10:11:22.359Z,18.70
2023-05-14T10:13:59.861Z,18.90
2023-05-14T10:16:32.797Z,18.90
2023-05-14T10:19:07.615Z,19.00
2023-05-14T10:21:38.282Z,19.20
2023-05-14T10:24:10.619Z,19.50
2023-05-14T10:26:42.147Z,19.70
2023-05-14T10:29:12.528Z,19.90
2023-05-14T10:31:55.518Z,20.00
2023-05-14T10:34:40.975Z,20.30
2023-05-14T10:37:11.673Z,20.50
2023-05-14T10:39:51.117Z,20.60
2023-05-14T10:42:21.433Z,20.80
2023-05-14T10:44:56.982Z,21.00
2023-05-14T10:47:27.672Z,21.20
2023-05-14T10:50:00.480Z,21.40
2023-05-14T10:52:28.707Z,21.60
2023-05-14T10:55:03.400Z,21.80
2023-05-14T10:57:33.915Z,21.90
2023-05-14T11:00:09.051Z,22.10
2023-05-14T11:02:41.003Z,22.10
2023-05-14T11:05:15.038Z,22.20
2023-05-14T11:07:47.519Z,22.30
2023-05-14T11:10:18.820Z,22.30
2023-05-14T11:12:49.640Z,22.10
2023-05-14T11:15:21.749Z,21.90
2023-05-14T11:17:51.524Z,21.90
2023-05-14T11:20:22.506Z,22.30
2023-05-14T11:22:52.659Z,22.60
2023-05-14T11:25:25.662Z,22.90
2023-05-14T11:27:58.424Z,23.20
2023-05-14T11:30:26.966Z,23.40
2023-05-14T11:32:57.634Z,23.40
2023-05-14T11:35:30.054Z,23.60
2023-05-14T11:37:59.046Z,23.80
2023-05-14T11:40:29.185Z,24.00
2023-05-14T11:42:58.101Z,23.80
2023-05-14T11:45:27.493Z,23.60
2023-05-14T11:47:56.147Z,23.70
2023-05-14T11:50:27.336Z,24.10
2023-05-14T11:52:59.188Z,24.50
2023-05-14T11:55:30.439Z,24.60
2023-05-14T11:58:04.032Z,24.50
2023-05-14T12:00:34.448Z,24.60
2023-05-14T12:03:04.048Z,24.60
2023-05-14T12:05:32.601Z,24.70
2023-05-14T12:08:02.031Z,25.00
2023-05-14T12:10:43.492Z,25.30
2023-05-14T12:13:16.032Z,25.70
2023-05-14T12:15:47.287Z,26.10
2023-05-14T12:18:24.533Z,26.40
2023-05-14T12:20:55.564Z,26.50
2023-05-14T12:23:27.628Z,26.80
2023-05-14T12:26:02.165Z,27.10
2023-05-14T12:28:31.004Z,26.80
2023-05-14T12:31:00.282Z,26.20
2023-05-14T12:33:28.939Z,25.60
2023-05-14T12:36:14.090Z,25.10
2023-05-14T12:38:51.900Z,24.80
2023-05-14T12:41:22.439Z,24.50
2023-05-14T12:43:53.351Z,24.30
2023-05-14T12:46:22.625Z,24.40
2023-05-14T12:48:53.150Z,24.60
2023-05-14T12:51:23.255Z,24.80
2023-05-14T12:53:54.132Z,24.60
2023-05-14T12:56:28.540Z,24.50
2023-05-14T12:58:57.477Z,24.40
2023-05-14T13:01:26.254Z,24.10
2023-05-14T13:03:55.504Z,23.80
2023-05-14T13:06:24.595Z,23.40
2023-05-14T13:08:53.368Z,23.30
2023-05-14T13:11:23.686Z,23.10
2023-05-14T13:13:52.057Z,23.30
2023-05-14T13:16:20.656Z,23.80
2023-05-14T13:18:51.830Z,24.30
2023-05-14T13:21:20.728Z,24.50
2023-05-14T13:23:49.345Z,25.20
2023-05-14T13:26:18.137Z,25.90
2023-05-14T13:28:48.382Z,26.70
2023-05-14T13:31:16.744Z,27.40
2023-05-14T13:33:45.965Z,28.00
2023-05-14T13:36:16.108Z,28.40
2023-05-14T13:38:45.820Z,29.10
2023-05-14T13:41:14.763Z,29.50
2023-05-14T13:43:43.077Z,29.60
2023-05-14T13:46:15.471Z,29.70
2023-05-14T13:48:44.719Z,30.10
2023-05-14T13:51:16.668Z,30.10
2023-05-14T13:53:46.756Z,29.80
2023-05-14T13:56:16.058Z,29.80
2023-05-14T13:58:44.556Z,29.80
2023-05-14T14:01:15.172Z,29.10
2023-05-14T14:03:44.846Z,28.60
2023-05-14T14:06:13.978Z,28.50
2023-05-14T14:08:43.269Z,28.60
2023-05-14T14:11:12.945Z,28.60
2023-05-14T14:13:45.174Z,28.90
2023-05-14T14:16:17.959Z,29.40
2023-05-14T14:18:49.700Z,29.00
2023-05-14T14:21:20.969Z,28.50
2023-05-14T14:23:51.942Z,28.00
2023-05-14T14:26:22.050Z,27.90
2023-05-14T14:28:51.240Z,28.60
2023-05-14T14:31:21.777Z,29.30
2023-05-14T14:33:50.950Z,29.40
2023-05-14T14:36:19.805Z,29.70
2023-05-14T14:38:48.694Z,28.80
2023-05-14T14:41:17.240Z,28.30
2023-05-14T14:43:46.697Z,27.70
2023-05-14T14:46:15.638Z,27.10
2023-05-14T14:48:45.913Z,26.50
2023-05-14T14:51:15.111Z,26.10
2023-05-14T14:53:44.754Z,25.70
2023-05-14T14:56:17.523Z,26.00
2023-05-14T14:58:47.196Z,26.40
2023-05-14T15:01:17.626Z,26.90
2023-05-14T15:03:49.065Z,27.70
2023-05-14T15:06:18.178Z,28.30
2023-05-14T15:08:46.502Z,28.80
2023-05-14T15:11:15.692Z,29.20
2023-05-14T15:13:44.097Z,29.60
2023-05-14T15:16:13.881Z,29.70
2023-05-14T15:18:42.864Z,30.10
2023-05-14T15:21:15.038Z,30.20
2023-05-14T15:23:43.897Z,30.10
2023-05-14T15:26:13.192Z,29.80
2023-05-14T15:28:41.987Z,29.10
2023-05-14T15:31:10.697Z,28.20
2023-05-14T15:33:39.219Z,27.80
2023-05-14T15:36:08.341Z,27.30
2023-05-14T15:38:38.340Z,27.20
2023-05-14T15:41:07.056Z,27.00
2023-05-14T15:43:35.398Z,26.60
2023-05-14T15:46:04.179Z,26.20
2023-05-14T15:48:34.091Z,26.00
2023-05-14T15:51:03.334Z,26.10
2023-05-14T15:53:33.953Z,26.00
2023-05-14T15:56:05.369Z,25.90
2023-05-14T15:58:33.972Z,25.50
2023-05-14T16:01:04.197Z,25.00
2023-05-14T16:03:32.887Z,24.70
2023-05-14T16:06:01.852Z,24.50
2023-05-14T16:08:30.680Z,24.20
2023-05-14T16:10:59.635Z,23.90
2023-05-14T16:13:31.985Z,23.60
2023-05-14T16:16:01.595Z,23.30
2023-05-14T16:18:30.643Z,23.00
2023-05-14T16:21:00.137Z,22.90
2023-05-14T16:23:29.388Z,22.80
2023-05-14T16:25:58.216Z,22.70
2023-05-14T16:28:27.023Z,22.60
2023-05-14T16:30:57.159Z,22.50
2023-05-14T16:33:25.874Z,22.40
2023-05-14T16:35:55.608Z,22.30
2023-05-14T16:38:25.444Z,22.20
2023-05-14T16:40:54.068Z,22.20
2023-05-14T16:43:22.671Z,22.10
2023-05-14T16:45:51.099Z,21.80
2023-05-14T16:48:23.810Z,21.70
2023-05-14T16:50:52.294Z,21.70
2023-05-14T16:53:21.875Z,21.60
2023-05-14T16:55:50.659Z,21.50
2023-05-14T16:58:19.330Z,21.40
2023-05-14T17:00:48.152Z,21.30
2023-05-14T17:03:16.926Z,21.30
2023-05-14T17:05:47.483Z,21.20
2023-05-14T17:08:16.659Z,21.10
2023-05-14T17:10:45.033Z,20.90
2023-05-14T17:13:14.573Z,20.90
2023-05-14T17:15:43.801Z,20.90
2023-05-14T17:18:13.173Z,20.90
2023-05-14T17:20:42.399Z,20.80
2023-05-14T17:23:12.590Z,20.70
2023-05-14T17:25:42.437Z,20.60
2023-05-14T17:28:10.851Z,20.50
2023-05-14T17:30:39.180Z,20.40
2023-05-14T17:33:08.595Z,20.30
2023-05-14T17:35:37.594Z,20.20
2023-05-14T17:38:06.254Z,20.10
2023-05-14T17:40:36.591Z,20.10
2023-05-14T17:43:08.470Z,20.00
2023-05-14T17:45:52.577Z,20.00
2023-05-14T17:48:22.363Z,20.00
2023-05-14T17:53:45.574Z,19.90
2023-05-14T17:56:24.304Z,19.90
2023-05-14T17:58:58.235Z,19.90
2023-05-14T18:04:31.743Z,19.80
2023-05-14T18:07:03.162Z,19.70
2023-05-14T18:09:34.435Z,19.70
2023-05-14T18:12:04.442Z,19.60
2023-05-14T18:14:33.063Z,19.50
2023-05-14T18:17:04.439Z,19.40
2023-05-14T18:19:33.102Z,19.30
2023-05-14T18:22:03.669Z,19.10
2023-05-14T18:24:32.120Z,18.90
2023-05-14T18:27:01.301Z,18.60
2023-05-14T18:29:33.310Z,18.30
2023-05-14T18:32:03.241Z,18.00
2023-05-14T18:34:31.656Z,17.70
2023-05-14T18:37:00.372Z,17.50
2023-05-14T18:39:29.192Z,17.30
2023-05-14T18:41:57.907Z,17.10
2023-05-14T18:44:26.466Z,16.80
2023-05-14T18:46:56.787Z,16.60
2023-05-14T18:49:25.781Z,16.50
2023-05-14T18:51:54.581Z,16.40
2023-05-14T18:54:24.218Z,16.20
2023-05-14T18:56:53.333Z,16.00
2023-05-14T18:59:22.780Z,15.80
2023-05-14T19:01:51.601Z,15.70
2023-05-14T19:04:21.681Z,15.50
2023-05-14T19:06:50.213Z,15.20
2023-05-14T19:09:21.319Z,15.10
2023-05-14T19:11:51.321Z,14.90
2023-05-14T19:14:20.727Z,14.70
2023-05-14T19:16:49.545Z,14.60
2023-05-14T19:19:18.477Z,14.40
2023-05-14T19:21:48.527Z,14.50
2023-05-14T19:24:18.138Z,14.10
2023-05-14T19:26:46.927Z,14.00
2023-05-14T19:29:17.834Z,13.90
2023-05-14T19:31:46.098Z,13.60
2023-05-14T19:34:14.900Z,13.60
2023-05-14T19:36:43.615Z,13.40
2023-05-14T19:39:13.790Z,13.10
2023-05-14T19:41:42.060Z,13.00
2023-05-14T19:44:10.665Z,13.00
2023-05-14T19:46:39.579Z,13.10
2023-05-14T19:49:08.786Z,13.10
2023-05-14T19:51:37.397Z,13.20
2023-05-14T19:54:06.809Z,13.20
2023-05-14T19:56:38.517Z,13.30
2023-05-14T19:59:07.705Z,13.40
2023-05-14T20:01:39.909Z,13.50
2023-05-14T20:04:11.556Z,13.50
2023-05-14T20:06:41.742Z,13.40
2023-05-14T20:09:10.209Z,13.50
2023-05-14T20:11:40.734Z,13.70
2023-05-14T20:14:09.116Z,13.60
2023-05-14T20:16:38.743Z,13.60
2023-05-14T20:19:09.028Z,13.70
2023-05-14T20:21:37.971Z,13.60
2023-05-14T20:24:08.229Z,13.50
2023-05-14T20:26:37.122Z,13.50
2023-05-14T20:29:09.210Z,13.40
2023-05-14T20:31:38.244Z,13.40
2023-05-14T20:34:09.506Z,13.20
2023-05-14T20:36:38.423Z,13.10
2023-05-14T20:39:09.054Z,13.10
2023-05-14T20:41:37.695Z,13.00
2023-05-14T20:44:08.215Z,13.00
2023-05-14T20:46:36.528Z,12.90
2023-05-14T20:49:05.410Z,12.90
2023-05-14T20:51:34.176Z,12.80
2023-05-14T20:54:03.113Z,12.80
2023-05-14T20:56:31.390Z,12.80
2023-05-14T20:59:01.381Z,12.70
2023-05-14T21:01:31.961Z,12.60
2023-05-14T21:04:00.803Z,12.60
2023-05-14T21:06:29.764Z,12.60
2023-05-14T21:08:58.652Z,12.60
2023-05-14T21:11:27.535Z,12.40
2023-05-14T21:13:56.190Z,12.30
2023-05-14T21:16:25.051Z,12.10
2023-05-14T21:18:55.617Z,12.10
2023-05-14T21:21:26.140Z,12.10
2023-05-14T21:23:56.746Z,12.10
2023-05-14T21:26:26.302Z,12.10
2023-05-14T21:28:55.264Z,11.90
2023-05-14T21:31:23.595Z,11.80
2023-05-14T21:33:52.236Z,11.70
2023-05-14T21:36:22.529Z,11.70
2023-05-14T21:38:51.761Z,11.60
2023-05-14T21:41:21.444Z,11.50
2023-05-14T21:43:50.964Z,11.50
2023-05-14T21:46:21.457Z,11.50
2023-05-14T21:48:50.355Z,11.50
2023-05-14T21:51:18.981Z,11.50
2023-05-14T21:53:51.248Z,11.50
2023-05-14T21:56:23.112Z,11.50
2023-05-14T21:58:53.237Z,11.40
2023-05-14T22:01:23.870Z,11.40
2023-05-14T22:03:52.705Z,11.30
2023-05-14T22:06:22.741Z,11.20
2023-05-14T22:08:55.076Z,11.00
2023-05-14T22:11:24.590Z,11.10
2023-05-14T22:13:53.698Z,11.00
2023-05-14T22:16:23.625Z,11.10
2023-05-14T22:18:52.697Z,11.00
2023-05-14T22:21:21.908Z,11.00
2023-05-14T22:23:51.322Z,10.90
2023-05-14T22:26:21.964Z,10.80
2023-05-14T22:28:53.092Z,10.80
2023-05-14T22:31:23.501Z,10.90
2023-05-14T22:33:54.162Z,10.90
2023-05-14T22:36:23.182Z,10.80
2023-05-14T22:38:52.032Z,10.80
2023-05-14T22:41:22.180Z,10.80
2023-05-14T22:43:51.666Z,10.80
2023-05-14T22:46:20.338Z,10.80
2023-05-14T22:48:50.215Z,10.80
2023-05-14T22:51:18.900Z,10.70
2023-05-14T22:53:48.601Z,10.70
2023-05-14T22:56:17.158Z,10.70
2023-05-14T22:58:46.908Z,10.60
2023-05-14T23:01:16.113Z,10.60
2023-05-14T23:03:44.586Z,10.50
2023-05-14T23:06:15.164Z,10.30
2023-05-14T23:08:43.908Z,10.40
2023-05-14T23:11:13.769Z,10.30
2023-05-14T23:13:42.497Z,10.30
2023-05-14T23:16:13.878Z,10.30
2023-05-14T23:18:42.989Z,10.30
2023-05-14T23:21:12.738Z,10.40
2023-05-14T23:23:42.343Z,10.40
2023-05-14T23:26:13.151Z,10.50
2023-05-14T23:28:42.809Z,10.60
2023-05-14T23:31:13.053Z,10.60
2023-05-14T23:33:44.745Z,10.50
2023-05-14T23:36:13.483Z,10.40
2023-05-14T23:38:44.803Z,10.40
2023-05-14T23:41:13.234Z,10.20
2023-05-14T23:43:43.043Z,10.10
2023-05-14T23:46:14.056Z,10.10
2023-05-14T23:48:46.978Z,10.20
2023-05-14T23:51:18.695Z,10.30
2023-05-14T23:53:48.407Z,10.30
2023-05-14T23:56:17.121Z,10.40
2023-05-14T23:58:47.291Z,10.40
